This is the latest recevied weather packets stored in our database for station/object K4AGR-13. If no packets are shown the sender has not sent any weather packets the latest 1 day(s).
| Time | Temp. | Humidity | Pressure | Rain* | Wind** | Luminosity | Snow |
|---|---|---|---|---|---|---|---|
| 1778034560 | 21.11° C | 75% | 1014.8 hPa | 0 mm | - | 0 W/m² | - |
| 1778034258 | 21.11° C | 74% | 1014.8 hPa | 0 mm | - | 0 W/m² | - |
| 1778033956 | 21.11° C | 74% | 1014.8 hPa | 0 mm | - | 0 W/m² | - |
| 1778033653 | 21.67° C | 74% | 1014.8 hPa | 0 mm | - | 0 W/m² | - |
| 1778033349 | 21.67° C | 74% | 1014.9 hPa | 0 mm | - | 0 W/m² | - |
| 1778032442 | 21.67° C | 72% | 1014.8 hPa | 0 mm | - | 0 W/m² | - |
| 1778031532 | 21.67° C | 71% | 1014.7 hPa | 0 mm | - | 0 W/m² | - |
| 1778031230 | 22.22° C | 70% | 1014.5 hPa | 0 mm | - | 0 W/m² | - |
| 1778030623 | 22.22° C | 69% | 1014.7 hPa | 0 mm | - | 0 W/m² | - |
| 1778030320 | 22.22° C | 68% | 1014.5 hPa | 0 mm | - | 0 W/m² | - |
| 1778029714 | 22.78° C | 67% | 1014.4 hPa | 0 mm | - | 0 W/m² | - |
| 1778029412 | 22.78° C | 66% | 1014 hPa | 0 mm | - | 0 W/m² | - |
| 1778029109 | 22.78° C | 65% | 1014 hPa | 0 mm | - | 0 W/m² | - |
| 1778027895 | 23.33° C | 63% | 1013.9 hPa | 0 mm | - | 0 W/m² | - |
| 1778027592 | 23.89° C | 61% | 1014.1 hPa | 0 mm | - | 1 W/m² | - |
| 1778027288 | 23.89° C | 60% | 1014 hPa | 0 mm | - | 2 W/m² | - |
| 1778026984 | 23.89° C | 60% | 1013.9 hPa | 0 mm | - | 4 W/m² | - |
| 1778026680 | 24.44° C | 59% | 1013.8 hPa | 0 mm | - | 6 W/m² | - |
| 1778026378 | 24.44° C | 58% | 1013.9 hPa | 0 mm | - | 10 W/m² | - |
| 1778023350 | 26.67° C | 52% | 1013.7 hPa | 0 mm | - | 62 W/m² | - |
| 1778021836 | 27.78° C | 48% | 1013.6 hPa | 0 mm | - | 140 W/m² | - |
| 1778021533 | 27.22° C | 48% | 1013.5 hPa | 0 mm | - | 174 W/m² | - |
| 1778020016 | 28.33° C | 46% | 1013.5 hPa | 0 mm | - | 311 W/m² | - |
| 1778019712 | 27.78° C | 46% | 1013.5 hPa | 0 mm | - | 317 W/m² | - |
| 1778017896 | 28.33° C | 44% | 1013.4 hPa | 0 mm | - | 381 W/m² | - |
* Rain latest hour (hover to see other rain measurements)
** Current wind speed in m/s (hover to see current wind gust speed)